createdAt,value
2022-07-30T00:04:01.448Z,3.50
2022-07-30T00:09:03.756Z,3.90
2022-07-30T00:14:06.061Z,4.50
2022-07-30T00:19:08.362Z,3.80
2022-07-30T00:24:11.017Z,3.80
2022-07-30T00:29:13.428Z,3.50
2022-07-30T00:34:15.302Z,3.60
2022-07-30T00:39:17.150Z,3.60
2022-07-30T00:44:19.454Z,3.70
2022-07-30T00:49:21.870Z,3.80
2022-07-30T00:54:24.186Z,3.53
2022-07-30T00:59:27.920Z,3.80
2022-07-30T01:04:31.019Z,3.70
2022-07-30T01:09:33.319Z,3.67
2022-07-30T01:14:37.290Z,3.50
2022-07-30T01:19:55.828Z,3.47
2022-07-30T01:24:58.087Z,3.90
2022-07-30T01:30:01.957Z,3.77
2022-07-30T01:35:06.446Z,3.43
2022-07-30T01:40:09.611Z,3.27
2022-07-30T01:45:13.646Z,3.37
2022-07-30T01:50:17.547Z,3.50
2022-07-30T01:55:39.710Z,3.40
2022-07-30T02:00:43.662Z,3.57
2022-07-30T02:05:59.190Z,3.80
2022-07-30T02:11:40.214Z,3.93
2022-07-30T02:16:50.341Z,3.70
2022-07-30T02:22:15.317Z,3.80
2022-07-30T02:27:27.215Z,3.80
2022-07-30T02:32:32.069Z,3.70
2022-07-30T02:37:41.049Z,3.80
2022-07-30T02:42:47.753Z,3.97
2022-07-30T02:47:55.700Z,3.60
2022-07-30T02:52:59.444Z,3.43
2022-07-30T02:58:04.124Z,3.60
2022-07-30T03:03:07.524Z,3.87
2022-07-30T03:08:13.058Z,4.37
2022-07-30T03:13:23.736Z,4.30
2022-07-30T03:18:31.690Z,4.30
2022-07-30T03:23:36.567Z,3.90
2022-07-30T03:28:39.979Z,3.97
2022-07-30T03:33:42.597Z,3.87
2022-07-30T03:38:45.698Z,4.27
2022-07-30T03:43:48.505Z,3.67
2022-07-30T03:48:53.848Z,4.07
2022-07-30T03:53:56.662Z,3.93
2022-07-30T03:59:29.085Z,4.20
2022-07-30T04:04:31.792Z,4.10
2022-07-30T04:09:34.236Z,4.27
2022-07-30T04:14:48.994Z,3.87
2022-07-30T04:19:57.271Z,3.87
2022-07-30T04:25:01.740Z,4.30
2022-07-30T04:30:04.853Z,4.23
2022-07-30T04:35:08.674Z,4.80
2022-07-30T04:40:33.559Z,4.70
2022-07-30T04:45:35.819Z,4.23
2022-07-30T04:50:43.488Z,4.90
2022-07-30T04:55:49.303Z,4.60
2022-07-30T05:00:53.081Z,4.70
2022-07-30T05:06:00.691Z,4.33
2022-07-30T05:11:06.508Z,4.63
2022-07-30T05:16:08.995Z,4.20
2022-07-30T05:21:10.973Z,3.90
2022-07-30T05:26:20.532Z,4.63
2022-07-30T05:31:25.630Z,5.03
2022-07-30T05:36:34.534Z,4.63
2022-07-30T05:41:36.927Z,5.20
2022-07-30T05:46:43.939Z,4.60
2022-07-30T05:51:46.263Z,4.70
2022-07-30T05:56:48.527Z,4.70
2022-07-30T06:01:55.445Z,4.20
2022-07-30T06:07:04.334Z,4.33
2022-07-30T06:12:07.869Z,4.90
2022-07-30T06:17:10.730Z,4.93
2022-07-30T06:22:33.239Z,4.57
2022-07-30T06:27:41.500Z,4.80
2022-07-30T06:32:45.709Z,4.70
2022-07-30T06:38:05.771Z,4.37
2022-07-30T06:43:21.551Z,4.70
2022-07-30T06:48:37.436Z,4.90
2022-07-30T06:53:42.896Z,4.30
2022-07-30T06:58:47.988Z,4.07
2022-07-30T07:04:08.998Z,4.10
2022-07-30T07:09:15.094Z,4.00
2022-07-30T07:14:23.863Z,3.93
2022-07-30T07:20:00.020Z,4.10
2022-07-30T07:24:49.231Z,3.70
2022-07-30T07:30:04.877Z,4.07
2022-07-30T07:35:10.597Z,3.53
2022-07-30T07:40:16.717Z,3.60
2022-07-30T07:45:19.143Z,3.83
2022-07-30T07:50:34.617Z,4.00
2022-07-30T07:55:38.196Z,3.83
2022-07-30T08:00:41.351Z,3.90
2022-07-30T08:06:00.848Z,3.77
2022-07-30T08:11:25.223Z,3.30
2022-07-30T08:17:02.320Z,3.97
2022-07-30T08:22:24.105Z,3.93
2022-07-30T08:27:26.766Z,3.70
2022-07-30T08:32:28.674Z,3.90
2022-07-30T08:37:32.714Z,3.83
2022-07-30T08:42:35.857Z,3.70
2022-07-30T08:47:41.364Z,3.80
2022-07-30T08:52:49.000Z,3.60
2022-07-30T08:57:51.784Z,3.60
2022-07-30T09:02:54.043Z,2.93
2022-07-30T09:07:56.024Z,3.60
2022-07-30T09:13:00.024Z,3.33
2022-07-30T09:18:03.518Z,2.77
2022-07-30T09:23:08.336Z,3.07
2022-07-30T09:28:36.438Z,2.77
2022-07-30T09:34:01.860Z,3.00
2022-07-30T09:39:29.443Z,3.07
2022-07-30T09:45:06.675Z,3.20
2022-07-30T09:50:10.158Z,2.90
2022-07-30T09:55:13.537Z,2.70
2022-07-30T10:00:23.834Z,2.80
2022-07-30T10:05:57.034Z,2.90
2022-07-30T10:10:59.388Z,2.60
2022-07-30T10:16:11.209Z,2.33
2022-07-30T10:21:13.726Z,2.40
2022-07-30T10:26:41.812Z,2.63
2022-07-30T10:32:03.509Z,2.80
2022-07-30T10:37:07.489Z,2.50
2022-07-30T10:42:27.539Z,2.70
2022-07-30T10:47:34.579Z,2.30
2022-07-30T10:52:45.830Z,2.50
2022-07-30T10:58:06.955Z,2.70
2022-07-30T11:03:23.452Z,2.47
2022-07-30T11:08:36.931Z,2.47
2022-07-30T11:13:55.305Z,2.60
2022-07-30T11:19:57.063Z,2.40
2022-07-30T11:24:46.841Z,2.27
2022-07-30T11:29:50.672Z,2.90
2022-07-30T11:34:53.942Z,2.57
2022-07-30T11:39:57.568Z,2.33
2022-07-30T11:45:18.410Z,2.20
2022-07-30T11:50:32.871Z,2.40
2022-07-30T11:55:43.190Z,2.27
2022-07-30T12:00:47.874Z,2.10
2022-07-30T12:05:51.253Z,2.00
2022-07-30T12:10:58.452Z,2.30
2022-07-30T12:16:01.123Z,2.40
2022-07-30T12:21:05.363Z,2.30
2022-07-30T12:26:08.649Z,2.43
2022-07-30T12:31:15.730Z,2.40
2022-07-30T12:36:31.884Z,2.30
2022-07-30T12:41:48.829Z,2.10
2022-07-30T12:46:50.787Z,2.17
2022-07-30T12:52:00.311Z,2.10
2022-07-30T12:57:04.576Z,2.00
2022-07-30T13:02:06.859Z,1.90
2022-07-30T13:07:12.994Z,2.00
2022-07-30T13:12:15.352Z,1.70
2022-07-30T13:17:18.454Z,1.90
2022-07-30T13:22:20.850Z,2.70
2022-07-30T13:27:23.037Z,2.17
2022-07-30T13:32:25.273Z,1.80
2022-07-30T13:37:38.234Z,2.10
2022-07-30T13:42:40.821Z,2.13
2022-07-30T13:47:43.398Z,1.93
2022-07-30T13:52:45.877Z,1.90
2022-07-30T13:57:48.174Z,1.77
2022-07-30T14:02:50.645Z,1.93
2022-07-30T14:07:52.785Z,2.27
2022-07-30T14:12:56.955Z,1.80
2022-07-30T14:17:59.627Z,2.20
2022-07-30T14:23:01.955Z,2.07
2022-07-30T14:28:05.052Z,2.00
2022-07-30T14:33:07.500Z,1.80
2022-07-30T14:38:09.906Z,2.00
2022-07-30T14:43:14.630Z,2.00
2022-07-30T14:48:17.533Z,2.70
2022-07-30T14:53:22.353Z,2.80
2022-07-30T14:58:24.925Z,1.90
2022-07-30T15:03:26.796Z,1.93
2022-07-30T15:08:29.648Z,1.80
2022-07-30T15:13:31.467Z,2.00
2022-07-30T15:18:34.793Z,2.00
2022-07-30T15:23:37.047Z,1.93
2022-07-30T15:28:39.465Z,1.87
2022-07-30T15:33:43.117Z,1.60
2022-07-30T15:38:45.396Z,1.70
2022-07-30T15:43:48.517Z,1.47
2022-07-30T15:48:50.484Z,1.93
2022-07-30T15:53:52.771Z,1.73
2022-07-30T15:58:54.663Z,1.80
2022-07-30T16:03:57.092Z,1.57
2022-07-30T16:08:59.854Z,1.90
2022-07-30T16:14:02.217Z,1.77
2022-07-30T16:19:04.497Z,2.03
2022-07-30T16:24:07.137Z,1.80
2022-07-30T16:29:13.504Z,2.30
2022-07-30T16:34:16.722Z,2.07
2022-07-30T16:39:19.039Z,2.47
2022-07-30T16:44:21.342Z,3.23
2022-07-30T16:49:23.252Z,3.40
2022-07-30T16:54:25.221Z,3.50
2022-07-30T16:59:29.072Z,3.30
2022-07-30T17:04:30.972Z,3.90
2022-07-30T17:09:36.687Z,5.87
2022-07-30T17:14:40.012Z,2.80
2022-07-30T17:19:42.813Z,2.57
2022-07-30T17:24:45.130Z,2.00
2022-07-30T17:29:49.767Z,1.70
2022-07-30T17:34:52.876Z,1.70
2022-07-30T17:40:26.502Z,2.10
2022-07-30T17:45:17.774Z,8.10
2022-07-30T17:50:19.674Z,3.77
2022-07-30T17:55:24.121Z,2.20
2022-07-30T18:00:26.475Z,3.53
2022-07-30T18:05:28.398Z,2.50
2022-07-30T18:10:30.593Z,2.10
2022-07-30T18:15:36.066Z,1.77
2022-07-30T18:20:38.267Z,1.80
2022-07-30T18:25:53.265Z,2.10
2022-07-30T18:30:56.528Z,1.93
2022-07-30T18:35:58.851Z,1.97
2022-07-30T18:41:02.784Z,2.30
2022-07-30T18:46:05.761Z,2.03
2022-07-30T18:51:13.919Z,2.00
2022-07-30T18:56:16.477Z,3.20
2022-07-30T19:01:18.439Z,2.50
2022-07-30T19:06:21.496Z,2.00
2022-07-30T19:11:24.203Z,2.60
2022-07-30T19:16:26.594Z,2.20
2022-07-30T19:21:28.869Z,3.60
2022-07-30T19:26:31.251Z,3.10
2022-07-30T19:31:33.501Z,3.10
2022-07-30T19:36:35.825Z,2.27
2022-07-30T19:41:41.118Z,2.20
2022-07-30T19:46:43.368Z,2.77
2022-07-30T19:52:07.399Z,3.27
2022-07-30T19:57:07.618Z,2.60
2022-07-30T20:02:10.056Z,2.77
2022-07-30T20:07:12.386Z,2.60
2022-07-30T20:12:14.479Z,2.87
2022-07-30T20:17:18.348Z,2.80
2022-07-30T20:22:21.370Z,3.10
2022-07-30T20:32:49.809Z,2.90
2022-07-30T20:37:54.838Z,3.60
2022-07-30T20:42:59.912Z,3.70
2022-07-30T20:48:02.585Z,4.40
2022-07-30T20:53:05.015Z,3.50
2022-07-30T20:58:16.313Z,4.57
2022-07-30T21:03:21.446Z,3.10
2022-07-30T21:08:25.588Z,2.83
2022-07-30T21:13:28.563Z,3.33
2022-07-30T21:18:34.657Z,2.90
2022-07-30T21:23:36.893Z,3.00
2022-07-30T21:28:40.290Z,2.97
2022-07-30T21:33:42.670Z,3.37
2022-07-30T21:38:45.295Z,2.70
2022-07-30T21:43:49.379Z,3.00
2022-07-30T21:48:56.499Z,3.17
2022-07-30T21:54:00.816Z,3.80
2022-07-30T21:59:03.081Z,3.17
2022-07-30T22:04:09.152Z,2.83
2022-07-30T22:09:19.264Z,2.80
2022-07-30T22:14:35.430Z,3.60
2022-07-30T22:19:37.789Z,3.03
2022-07-30T22:24:40.345Z,3.20
2022-07-30T22:29:43.356Z,3.13
2022-07-30T22:34:45.835Z,3.00
2022-07-30T22:39:51.867Z,3.00
2022-07-30T22:44:55.463Z,2.77
2022-07-30T22:49:58.234Z,3.10
2022-07-30T22:55:09.014Z,3.20
2022-07-30T23:00:27.526Z,3.00
2022-07-30T23:05:30.915Z,3.70
2022-07-30T23:10:37.611Z,3.07
2022-07-30T23:12:18.034Z,2.97
2022-07-30T23:15:39.940Z,3.40
2022-07-30T23:20:42.541Z,3.70
2022-07-30T23:25:45.113Z,3.20
2022-07-30T23:30:47.610Z,3.40
2022-07-30T23:35:49.859Z,3.37
2022-07-30T23:40:52.416Z,3.10
2022-07-30T23:45:54.661Z,3.23
2022-07-30T23:50:56.935Z,3.23
2022-07-30T23:55:59.219Z,3.43
